Time;durP1;ratioP1;P1;durP2;ratioP2;P2;SDS_P1;SDS_P2;PMS_P1;PMS_P2;Temp;Humidity;BMP_temperature;BMP_pressure;BME280_temperature;BME280_humidity;BME280_pressure;Samples;Min_cycle;Max_cycle;Signal;HPM_P1;HPM_P2
2023/05/03 00:01:50;;;;;;;;;6.50;5.25;;;;;18.32;54.13;101110.41;5054887;28;45762;-74
2023/05/03 00:04:16;;;;;;;;;8.50;8.25;;;;;17.98;53.87;101059.50;5059803;28;45478;-74
2023/05/03 00:06:43;;;;;;;;;6.25;5.50;;;;;18.14;54.25;101088.72;5060477;28;45402;-74
2023/05/03 00:09:11;;;;;;;;;7.50;4.75;;;;;18.30;54.15;101106.13;5059793;28;47148;-74
2023/05/03 00:11:36;;;;;;;;;9.00;6.80;;;;;18.16;53.92;101088.53;5059668;28;45513;-75
2023/05/03 00:14:02;;;;;;;;;8.50;7.25;;;;;18.30;54.15;101123.41;5060073;28;45728;-74
2023/05/03 00:16:27;;;;;;;;;4.75;4.75;;;;;18.25;53.93;101110.25;5058338;28;45552;-75
2023/05/03 00:18:52;;;;;;;;;6.75;6.00;;;;;18.24;53.93;101110.44;5059280;28;46558;-74
2023/05/03 00:21:19;;;;;;;;;7.50;6.25;;;;;18.27;53.90;101123.78;5059619;28;45406;-74
2023/05/03 00:23:45;;;;;;;;;7.50;5.50;;;;;18.22;53.85;101126.19;5056705;28;45865;-74
2023/05/03 00:26:12;;;;;;;;;7.25;6.00;;;;;18.18;53.73;101124.84;5060405;28;45484;-75
2023/05/03 00:28:37;;;;;;;;;7.00;3.75;;;;;18.15;53.72;101119.69;5062442;28;46382;-75
2023/05/03 00:31:08;;;;;;;;;8.50;5.75;;;;;18.13;53.85;101119.03;5060581;28;45432;-75
2023/05/03 00:33:35;;;;;;;;;7.00;6.25;;;;;17.96;53.91;101086.19;5059824;27;45469;-76
2023/05/03 00:36:11;;;;;;;;;5.50;5.50;;;;;18.25;53.74;101131.31;5060084;28;45646;-75
2023/05/03 00:38:37;;;;;;;;;5.50;5.50;;;;;18.24;54.00;101130.47;5058557;28;46335;-75
2023/05/03 00:41:03;;;;;;;;;6.60;5.40;;;;;18.23;53.62;101125.16;5059610;28;45365;-75
2023/05/03 00:43:30;;;;;;;;;10.50;6.50;;;;;18.16;53.81;101113.19;5058614;28;45335;-75
2023/05/03 00:45:58;;;;;;;;;8.75;7.25;;;;;18.20;53.88;101122.78;5059620;28;45441;-74
2023/05/03 00:48:24;;;;;;;;;7.75;6.75;;;;;18.11;53.76;101102.75;5058969;28;46555;-74
2023/05/03 00:50:50;;;;;;;;;7.60;5.00;;;;;18.24;53.99;101124.13;5059445;28;45378;-75
2023/05/03 00:53:17;;;;;;;;;6.50;5.25;;;;;18.12;53.92;101093.50;5058474;28;45485;-75
2023/05/03 00:55:44;;;;;;;;;7.50;7.50;;;;;18.15;53.86;101111.47;5059421;28;45680;-74
2023/05/03 00:58:10;;;;;;;;;6.50;5.50;;;;;18.16;53.83;101104.97;5058598;28;46330;-74
2023/05/03 01:00:36;;;;;;;;;5.50;5.50;;;;;18.21;53.76;101108.06;5057051;28;45498;-74
2023/05/03 01:03:01;;;;;;;;;8.00;6.25;;;;;18.20;54.01;101100.88;5059326;28;45472;-74
2023/05/03 01:05:35;;;;;;;;;8.00;7.25;;;;;18.09;53.96;101105.69;5058957;28;45882;-74
2023/05/03 01:08:12;;;;;;;;;8.50;7.50;;;;;18.14;53.87;101112.53;5054886;28;46056;-74
2023/05/03 01:10:56;;;;;;;;;7.00;5.75;;;;;18.19;53.74;101115.59;5058851;28;45390;-74
2023/05/03 01:13:41;;;;;;;;;5.00;5.00;;;;;18.09;53.74;101097.47;5057572;28;45445;-74
2023/05/03 01:16:19;;;;;;;;;8.50;7.00;;;;;18.19;53.67;101112.84;5058992;28;45840;-74
2023/05/03 01:18:50;;;;;;;;;11.00;7.50;;;;;18.21;53.35;101110.78;5059035;28;46091;-74
2023/05/03 01:21:17;;;;;;;;;6.80;5.60;;;;;18.06;53.72;101092.34;5057350;28;45493;-74
2023/05/03 01:24:09;;;;;;;;;5.25;5.25;;;;;18.17;53.31;101117.63;5059178;28;45734;-74
2023/05/03 01:26:35;;;;;;;;;7.25;6.00;;;;;18.05;53.61;101103.47;5048076;28;45643;-74
2023/05/03 01:29:00;;;;;;;;;9.00;6.00;;;;;18.01;53.73;101102.94;5058926;28;45680;-74
2023/05/03 01:31:38;;;;;;;;;6.00;6.00;;;;;18.13;53.62;101125.34;5058432;28;45485;-74
2023/05/03 01:34:11;;;;;;;;;5.25;5.25;;;;;18.11;53.69;101122.81;5058846;28;45390;-74
2023/05/03 01:36:41;;;;;;;;;8.50;7.25;;;;;18.11;53.46;101120.06;5050285;28;45990;-74
2023/05/03 01:39:13;;;;;;;;;5.50;5.50;;;;;18.04;53.52;101105.34;5044654;28;46522;-74
2023/05/03 01:41:41;;;;;;;;;4.60;4.60;;;;;18.11;53.50;101124.66;5058562;28;45447;-75
2023/05/03 01:44:10;;;;;;;;;6.75;6.75;;;;;18.10;53.55;101126.56;5049857;28;45729;-75
2023/05/03 01:46:45;;;;;;;;;14.00;8.75;;;;;17.82;53.40;101074.03;5059032;28;45532;-74
2023/05/03 01:49:11;;;;;;;;;7.25;5.50;;;;;18.01;53.14;101108.44;5058360;28;45673;-75
2023/05/03 01:51:36;;;;;;;;;7.50;7.50;;;;;17.95;53.65;101103.66;5058130;28;45499;-74
2023/05/03 01:54:02;;;;;;;;;5.50;5.50;;;;;18.05;53.34;101108.94;5046275;28;45717;-74
2023/05/03 01:56:29;;;;;;;;;5.75;5.75;;;;;18.00;53.40;101103.97;5059156;28;45552;-74
2023/05/03 01:58:54;;;;;;;;;5.75;5.75;;;;;18.02;53.59;101109.31;5058200;28;46286;-74
2023/05/03 02:01:19;;;;;;;;;4.50;4.50;;;;;18.08;52.92;101108.59;5058082;28;45469;-74
2023/05/03 02:03:47;;;;;;;;;7.50;7.50;;;;;18.04;53.37;101105.34;5057512;28;45548;-74
2023/05/03 02:06:12;;;;;;;;;8.75;6.50;;;;;18.00;53.34;101100.41;5057810;28;45418;-74
2023/05/03 02:08:38;;;;;;;;;7.50;6.50;;;;;17.90;53.17;101090.44;5056897;28;45441;-74
2023/05/03 02:11:03;;;;;;;;;8.00;7.00;;;;;17.90;52.97;101084.97;5058332;28;45394;-74
2023/05/03 02:13:28;;;;;;;;;7.50;7.50;;;;;17.96;53.07;101106.22;5057795;28;45397;-74
2023/05/03 02:15:54;;;;;;;;;7.00;5.00;;;;;17.90;53.16;101097.81;5057047;28;45436;-74
2023/05/03 02:18:21;;;;;;;;;6.50;5.25;;;;;18.03;52.64;101117.34;5057655;28;47451;-75
2023/05/03 02:20:46;;;;;;;;;9.75;7.50;;;;;17.93;52.83;101101.06;5058039;28;45532;-74
2023/05/03 02:23:13;;;;;;;;;6.00;5.50;;;;;17.96;53.15;101108.09;5057893;28;45421;-75
2023/05/03 02:25:39;;;;;;;;;7.00;6.50;;;;;18.00;52.89;101117.69;5058030;28;45553;-74
2023/05/03 02:28:05;;;;;;;;;5.00;5.00;;;;;17.91;52.65;101096.81;5057501;28;46743;-74
2023/05/03 02:30:32;;;;;;;;;7.40;6.60;;;;;17.90;52.86;101101.41;5057627;28;45337;-74
2023/05/03 02:32:58;;;;;;;;;5.25;4.75;;;;;17.96;52.61;101110.84;5057939;28;45407;-74
2023/05/03 02:35:25;;;;;;;;;5.50;5.50;;;;;18.03;52.71;101117.34;5058158;28;45779;-74
2023/05/03 02:37:50;;;;;;;;;7.25;7.25;;;;;17.99;52.37;101110.50;5055198;28;46348;-74
2023/05/03 02:40:16;;;;;;;;;6.00;6.00;;;;;18.00;52.19;101112.19;5056510;28;45504;-74
2023/05/03 02:42:42;;;;;;;;;7.25;7.25;;;;;18.01;52.74;101118.53;5057573;28;45422;-74
2023/05/03 02:45:08;;;;;;;;;7.00;7.00;;;;;18.01;52.71;101115.81;5057964;28;45433;-74
2023/05/03 02:47:33;;;;;;;;;6.50;6.50;;;;;17.93;52.67;101111.16;5056761;28;46212;-74
2023/05/03 02:50:00;;;;;;;;;5.00;5.00;;;;;17.87;52.71;101090.81;5057789;28;45873;-75
2023/05/03 02:52:25;;;;;;;;;5.50;5.00;;;;;17.71;52.53;101069.78;5059818;28;45556;-75
2023/05/03 02:54:51;;;;;;;;;6.25;6.25;;;;;17.87;52.63;101085.34;5065021;28;45425;-75
2023/05/03 02:57:17;;;;;;;;;6.25;4.50;;;;;17.69;52.01;101060.03;5056495;28;45951;-74
2023/05/03 02:59:43;;;;;;;;;7.60;7.60;;;;;17.84;51.70;101084.84;5057266;28;45685;-74
2023/05/03 03:02:08;;;;;;;;;9.25;6.50;;;;;17.95;52.24;101103.66;5057526;28;45411;-74
2023/05/03 03:04:34;;;;;;;;;4.00;4.00;;;;;17.77;52.12;101066.38;5057500;28;45288;-74
2023/05/03 03:06:59;;;;;;;;;6.00;6.00;;;;;17.90;52.27;101087.72;5055109;28;45415;-74
2023/05/03 03:09:25;;;;;;;;;5.00;5.00;;;;;17.85;52.34;101076.44;5057057;28;45411;-74
2023/05/03 03:11:52;;;;;;;;;6.75;6.25;;;;;17.88;51.85;101076.09;5057295;28;45440;-74
2023/05/03 03:14:17;;;;;;;;;7.50;4.50;;;;;17.89;52.16;101075.06;5064346;28;45563;-74
2023/05/03 03:16:45;;;;;;;;;5.50;5.50;;;;;17.91;52.08;101077.63;5057131;28;45610;-75
2023/05/03 03:19:10;;;;;;;;;8.00;7.25;;;;;17.79;51.45;101064.28;5057109;28;45398;-75
2023/05/03 03:21:36;;;;;;;;;7.50;6.75;;;;;17.81;52.14;101069.63;5056133;28;45331;-75
2023/05/03 03:24:03;;;;;;;;;5.25;5.25;;;;;17.87;52.35;101074.38;5057922;28;45687;-74
2023/05/03 03:26:29;;;;;;;;;4.50;4.50;;;;;17.32;51.83;100992.03;5056772;28;45526;-74
2023/05/03 03:28:55;;;;;;;;;6.20;6.20;;;;;17.79;51.87;101056.09;5057165;28;45479;-74
2023/05/03 03:31:24;;;;;;;;;6.75;5.50;;;;;17.79;51.75;101053.34;5056722;28;45294;-74
2023/05/03 03:33:50;;;;;;;;;4.75;4.75;;;;;17.72;51.86;101046.03;5050461;28;45668;-74
2023/05/03 03:36:15;;;;;;;;;5.25;5.25;;;;;17.87;51.67;101057.09;5054113;28;45496;-74
2023/05/03 03:38:41;;;;;;;;;5.75;5.75;;;;;17.80;52.10;101060.53;5060619;28;45368;-74
2023/05/03 03:41:07;;;;;;;;;8.00;7.25;;;;;17.86;51.75;101055.38;5060549;28;45397;-74
2023/05/03 03:43:32;;;;;;;;;6.25;5.50;;;;;17.80;51.91;101046.00;5059266;28;45415;-74
2023/05/03 03:45:59;;;;;;;;;7.00;6.75;;;;;17.75;51.89;101043.78;5060178;28;46207;-74
2023/05/03 03:48:24;;;;;;;;;5.00;5.00;;;;;17.82;51.41;101038.44;5060339;28;45433;-74
2023/05/03 03:50:50;;;;;;;;;5.00;5.00;;;;;17.80;51.94;101041.38;5059634;28;45369;-74
2023/05/03 03:53:16;;;;;;;;;6.75;5.00;;;;;17.77;51.85;101030.78;5060254;28;45784;-74
2023/05/03 03:55:41;;;;;;;;;6.75;6.00;;;;;17.69;51.44;101017.13;5059652;28;45469;-74
2023/05/03 03:58:08;;;;;;;;;6.50;5.50;;;;;17.84;51.88;101043.78;5059497;28;45456;-74
2023/05/03 04:00:37;;;;;;;;;7.75;6.00;;;;;17.80;51.81;101038.63;5058447;28;45727;-74
2023/05/03 04:03:03;;;;;;;;;5.75;5.50;;;;;17.77;51.94;101030.78;5060928;28;45406;-74
2023/05/03 04:05:29;;;;;;;;;5.00;5.00;;;;;17.70;51.92;101027.03;5059580;28;47112;-74
2023/05/03 04:07:56;;;;;;;;;4.00;4.00;;;;;17.66;52.18;101017.44;5060125;28;45936;-74
2023/05/03 04:10:21;;;;;;;;;7.50;4.50;;;;;17.67;51.19;101016.44;5059798;28;45454;-73
2023/05/03 04:12:46;;;;;;;;;7.50;6.50;;;;;17.69;51.59;101025.31;5060143;28;45383;-74
2023/05/03 04:15:12;;;;;;;;;8.00;6.00;;;;;17.69;51.66;101025.31;5058070;28;46487;-68
2023/05/03 04:17:37;;;;;;;;;6.50;6.25;;;;;17.72;51.88;101038.66;5059556;28;45426;-75
2023/05/03 04:20:06;;;;;;;;;6.00;5.00;;;;;17.62;52.03;101022.41;5059115;28;45432;-68
2023/05/03 04:22:33;;;;;;;;;5.25;4.50;;;;;17.56;52.23;101016.81;5061014;28;45458;-68
2023/05/03 04:25:01;;;;;;;;;8.75;5.50;;;;;17.62;52.77;101021.56;5059218;28;47366;-78
2023/05/03 04:27:27;;;;;;;;;13.50;10.00;;;;;17.23;43.68;101023.19;5060220;28;45550;-64
2023/05/03 04:29:53;;;;;;;;;13.50;10.50;;;;;16.53;42.89;101044.44;5063736;27;45438;-64
2023/05/03 04:32:22;;;;;;;;;12.50;12.50;;;;;15.97;43.11;101037.72;5071110;28;45749;-63
2023/05/03 04:34:53;;;;;;;;;12.75;12.00;;;;;15.32;44.83;101030.78;5059942;27;46537;-64
2023/05/03 04:37:18;;;;;;;;;16.75;13.75;;;;;15.22;45.70;101029.03;5066219;28;45537;-65
2023/05/03 04:39:45;;;;;;;;;10.00;9.00;;;;;15.52;46.97;101032.31;5056789;28;45506;-65
2023/05/03 04:42:14;;;;;;;;;13.00;11.00;;;;;15.93;47.54;101042.66;5065989;28;45579;-65
2023/05/03 04:44:41;;;;;;;;;11.25;8.75;;;;;16.48;47.26;101054.97;5064281;28;46433;-66
2023/05/03 04:47:07;;;;;;;;;8.75;7.75;;;;;16.61;46.97;101007.22;5062770;28;45467;-65
2023/05/03 04:49:34;;;;;;;;;8.75;6.50;;;;;17.17;46.92;101049.31;5046151;28;45545;-65
2023/05/03 04:52:00;;;;;;;;;7.25;7.25;;;;;17.25;47.32;101014.78;5059303;28;45482;-65
2023/05/03 04:54:25;;;;;;;;;8.50;5.50;;;;;17.45;47.61;101050.84;5058234;28;45537;-65
2023/05/03 04:56:53;;;;;;;;;7.75;7.75;;;;;17.29;47.85;101024.34;5059834;28;45458;-65
2023/05/03 04:59:19;;;;;;;;;7.00;7.00;;;;;17.47;48.40;101046.91;5061171;28;45604;-65
2023/05/03 05:01:45;;;;;;;;;11.00;7.50;;;;;17.21;49.00;101007.94;5061976;28;45496;-65
2023/05/03 05:04:10;;;;;;;;;7.00;7.00;;;;;17.33;49.65;101023.84;5057808;28;47213;-80
2023/05/03 05:06:36;;;;;;;;;7.00;6.50;;;;;17.36;50.89;101033.56;5056510;28;45558;-79
2023/05/03 05:09:01;;;;;;;;;4.25;4.25;;;;;17.33;51.31;101039.41;5061802;28;45482;-73
2023/05/03 05:11:27;;;;;;;;;8.00;7.00;;;;;17.41;51.12;101047.63;5056818;28;45570;-70
2023/05/03 05:13:52;;;;;;;;;5.50;5.25;;;;;17.40;51.55;101040.44;5057971;28;46929;-74
2023/05/03 05:16:19;;;;;;;;;9.00;7.00;;;;;17.25;51.68;101006.59;5059408;28;45393;-70
2023/05/03 05:18:44;;;;;;;;;6.75;5.00;;;;;17.39;52.17;101032.38;5065661;27;45695;-74
2023/05/03 05:21:12;;;;;;;;;9.25;8.25;;;;;17.34;52.01;101035.66;5059148;28;45765;-73
2023/05/03 05:23:37;;;;;;;;;7.00;7.00;;;;;17.33;52.77;101033.94;5056750;28;45663;-76
2023/05/03 05:26:03;;;;;;;;;12.25;7.00;;;;;17.38;52.13;101037.00;5044354;28;45610;-78
2023/05/03 05:28:28;;;;;;;;;11.50;8.50;;;;;17.22;51.36;101018.72;5057396;28;45417;-79
2023/05/03 05:30:55;;;;;;;;;6.25;6.25;;;;;17.25;51.89;101028.47;5057502;28;45398;-79
2023/05/03 05:33:23;;;;;;;;;9.50;9.50;;;;;17.38;51.81;101041.63;5057219;28;46078;-76
2023/05/03 05:35:49;;;;;;;;;9.25;8.50;;;;;17.40;51.41;101042.28;5061427;28;45428;-76
2023/05/03 05:38:17;;;;;;;;;10.75;7.25;;;;;17.49;52.05;101050.31;5069106;28;45522;-76
2023/05/03 05:40:43;;;;;;;;;12.50;7.50;;;;;17.54;51.90;101051.69;5062689;28;45712;-74
2023/05/03 05:43:08;;;;;;;;;9.75;8.00;;;;;17.57;51.61;101034.91;5052016;28;46557;-73
2023/05/03 05:45:35;;;;;;;;;10.25;5.75;;;;;17.71;51.99;101047.88;5042924;28;45682;-77
2023/05/03 05:48:00;;;;;;;;;8.75;6.75;;;;;17.73;52.34;101043.09;5053060;28;45528;-70
2023/05/03 05:50:26;;;;;;;;;10.00;6.75;;;;;17.88;52.22;101061.53;5058580;28;45469;-70
2023/05/03 05:52:52;;;;;;;;;7.25;7.25;;;;;17.79;51.86;101056.09;5054028;28;45828;-69
2023/05/03 05:55:17;;;;;;;;;10.00;7.50;;;;;17.75;52.30;101049.25;5057952;28;45474;-69
2023/05/03 05:57:43;;;;;;;;;11.75;6.75;;;;;17.71;52.96;101052.50;5048916;28;45613;-70
2023/05/03 06:00:13;;;;;;;;;7.75;6.50;;;;;17.80;52.73;101074.22;5058798;28;45617;-74
2023/05/03 06:02:40;;;;;;;;;15.50;11.00;;;;;17.68;49.34;101058.31;5060007;28;47479;-78
2023/05/03 06:05:12;;;;;;;;;8.75;6.75;;;;;17.62;52.09;101068.09;5055312;28;45455;-82
2023/05/03 06:07:41;;;;;;;;;10.00;8.00;;;;;17.71;52.02;101069.78;5055395;28;45651;-78
2023/05/03 06:10:07;;;;;;;;;12.50;9.50;;;;;17.72;52.43;101073.38;5056126;28;45785;-78
2023/05/03 06:12:33;;;;;;;;;7.25;7.25;;;;;17.49;52.60;101033.91;5057364;28;45505;-78
2023/05/03 06:14:58;;;;;;;;;11.00;7.75;;;;;17.65;52.61;101056.78;5056757;28;45516;-78
2023/05/03 06:17:25;;;;;;;;;8.25;7.50;;;;;17.69;53.27;101049.97;5057411;28;45429;-79
2023/05/03 06:19:53;;;;;;;;;9.50;7.00;;;;;17.79;53.04;101067.03;5058142;28;45698;-79
2023/05/03 06:22:19;;;;;;;;;9.50;9.00;;;;;17.82;52.72;101064.97;5056634;28;46987;-78
2023/05/03 06:24:46;;;;;;;;;13.00;6.75;;;;;17.75;53.57;101059.34;5057440;28;45690;-78
2023/05/03 06:27:12;;;;;;;;;12.25;7.50;;;;;17.78;52.93;101068.06;5057185;28;45446;-79
2023/05/03 06:29:37;;;;;;;;;6.25;6.25;;;;;17.74;53.34;101060.41;5057338;28;45419;-78
2023/05/03 06:32:03;;;;;;;;;9.25;6.25;;;;;17.82;53.38;101070.47;5056206;28;50336;-78
2023/05/03 06:34:29;;;;;;;;;9.50;7.25;;;;;17.68;53.32;101050.13;5057123;28;45489;-78
2023/05/03 06:36:54;;;;;;;;;6.00;5.00;;;;;17.78;53.18;101062.59;5058243;28;45742;-78
2023/05/03 06:39:21;;;;;;;;;9.50;7.00;;;;;17.82;53.14;101064.97;5055122;28;45543;-77
2023/05/03 06:41:46;;;;;;;;;7.50;7.50;;;;;17.70;53.11;101054.41;5056689;27;46013;-79
2023/05/03 06:44:13;;;;;;;;;10.25;6.25;;;;;17.76;53.20;101067.41;5058775;28;45465;-80
2023/05/03 06:46:38;;;;;;;;;8.25;6.75;;;;;17.60;53.42;101037.31;5062973;27;45359;-79
2023/05/03 06:49:05;;;;;;;;;8.75;6.50;;;;;17.69;53.40;101054.56;5057907;28;45443;-79
2023/05/03 06:51:31;;;;;;;;;7.00;6.75;;;;;17.73;53.75;101066.91;5057617;28;45602;-79
2023/05/03 06:54:05;;;;;;;;;7.20;6.40;;;;;17.65;53.52;101043.09;5060005;28;45394;-79
2023/05/03 06:56:32;;;;;;;;;7.00;6.50;;;;;17.56;53.68;101025.03;5046113;28;45357;-80
2023/05/03 06:58:59;;;;;;;;;8.50;8.25;;;;;17.78;53.38;101059.00;5061787;28;45434;-79
2023/05/03 07:01:25;;;;;;;;;7.50;6.75;;;;;17.75;54.07;101062.06;5057104;28;45571;-79
2023/05/03 07:03:51;;;;;;;;;7.50;4.50;;;;;17.57;53.95;101034.91;5043644;28;45438;-79
2023/05/03 07:06:17;;;;;;;;;5.25;5.25;;;;;17.62;53.33;101043.47;5056711;28;45343;-80
2023/05/03 07:08:43;;;;;;;;;6.75;6.25;;;;;17.70;53.74;101057.16;5056455;28;45722;-79
2023/05/03 07:11:08;;;;;;;;;8.25;5.75;;;;;17.73;53.95;101054.03;5056104;28;45485;-79
2023/05/03 07:13:34;;;;;;;;;8.75;8.00;;;;;17.67;53.61;101046.53;5050309;28;45300;-79
2023/05/03 07:16:00;;;;;;;;;7.25;5.75;;;;;17.73;53.70;101056.78;5048890;28;45444;-79
2023/05/03 07:18:25;;;;;;;;;6.75;4.75;;;;;17.62;53.57;101038.00;5054285;28;45460;-79
2023/05/03 07:20:51;;;;;;;;;6.75;5.25;;;;;17.58;53.98;101032.03;5051579;28;45660;-79
2023/05/03 07:23:17;;;;;;;;;8.75;5.25;;;;;17.73;53.59;101061.41;5066020;28;45919;-79
2023/05/03 07:25:44;;;;;;;;;7.75;6.50;;;;;17.68;53.87;101037.31;5067683;28;45490;-79
2023/05/03 07:28:10;;;;;;;;;8.75;7.00;;;;;17.68;53.85;101047.38;5068129;28;45509;-79
2023/05/03 07:30:36;;;;;;;;;5.75;5.75;;;;;17.62;54.10;101027.06;5055163;28;46742;-78
2023/05/03 07:33:02;;;;;;;;;7.75;5.00;;;;;17.57;54.33;101013.88;5056783;28;45397;-79
2023/05/03 07:35:28;;;;;;;;;10.00;6.00;;;;;17.67;53.79;101030.13;5056598;28;45466;-79
2023/05/03 07:37:54;;;;;;;;;6.50;4.75;;;;;17.68;53.30;101020.88;5056794;28;45433;-80
2023/05/03 07:40:19;;;;;;;;;8.75;5.00;;;;;17.75;53.70;101041.03;5056585;28;46506;-79
2023/05/03 07:42:45;;;;;;;;;8.25;6.25;;;;;17.63;54.16;101018.66;5054743;28;45765;-78
2023/05/03 07:45:11;;;;;;;;;6.50;6.50;;;;;17.72;54.17;101022.22;5056877;28;45695;-79
2023/05/03 07:47:38;;;;;;;;;6.50;6.50;;;;;17.44;54.00;100969.78;5056806;28;45618;-79
2023/05/03 07:50:06;;;;;;;;;7.25;5.00;;;;;17.70;53.84;101002.41;5056395;28;46312;-78
2023/05/03 07:52:38;;;;;;;;;6.00;5.00;;;;;17.74;54.14;101014.69;5056504;28;45557;-73
2023/05/03 07:55:05;;;;;;;;;10.50;7.50;;;;;17.85;53.86;101027.16;5056559;28;45462;-78
2023/05/03 07:57:31;;;;;;;;;6.50;6.50;;;;;17.74;52.40;101014.69;5055052;28;45786;-75
2023/05/03 07:59:56;;;;;;;;;6.25;5.00;;;;;17.71;52.58;101004.09;5050554;28;48055;-75
2023/05/03 08:02:22;;;;;;;;;8.75;6.00;;;;;17.77;52.94;101006.16;5054677;28;45414;-74
2023/05/03 08:04:48;;;;;;;;;7.00;5.00;;;;;17.82;52.77;101008.31;5056215;28;45484;-74
2023/05/03 08:07:14;;;;;;;;;6.25;6.00;;;;;17.80;53.21;100997.56;5056466;28;46544;-74
2023/05/03 08:09:40;;;;;;;;;7.50;4.75;;;;;17.85;53.42;100994.28;5054496;28;47438;-74
2023/05/03 08:12:06;;;;;;;;;9.25;8.00;;;;;17.72;53.00;100972.94;5056225;28;45472;-74
2023/05/03 08:14:32;;;;;;;;;10.25;7.50;;;;;17.78;53.22;100985.09;5055469;28;45334;-75
2023/05/03 08:16:59;;;;;;;;;7.75;4.75;;;;;17.80;52.91;100980.28;5056019;28;45757;-74
2023/05/03 08:19:25;;;;;;;;;6.25;4.75;;;;;17.85;52.71;100993.47;5055274;28;45683;-74
2023/05/03 08:21:53;;;;;;;;;6.75;6.75;;;;;17.87;52.51;100996.84;5056954;28;45524;-74
2023/05/03 08:24:19;;;;;;;;;6.40;4.20;;;;;17.86;52.63;100984.19;5059304;28;45520;-74
2023/05/03 08:26:47;;;;;;;;;6.50;6.50;;;;;17.80;52.63;100974.81;5060030;28;45402;-74
2023/05/03 08:29:14;;;;;;;;;4.50;4.50;;;;;17.88;52.50;100983.00;5057749;28;46642;-74
2023/05/03 08:31:40;;;;;;;;;7.50;5.25;;;;;17.79;52.48;100973.94;5056779;28;45573;-74
2023/05/03 08:34:06;;;;;;;;;4.00;3.00;;;;;17.89;52.22;100987.41;5057562;28;45521;-74
2023/05/03 08:36:33;;;;;;;;;7.00;7.00;;;;;17.90;52.44;100980.09;5059768;28;45521;-74
2023/05/03 08:39:01;;;;;;;;;8.00;6.00;;;;;17.77;52.30;100956.88;5058823;28;46509;-74
2023/05/03 08:41:30;;;;;;;;;7.00;6.00;;;;;17.90;52.59;100975.44;5058715;28;45374;-74
2023/05/03 08:43:57;;;;;;;;;6.00;5.75;;;;;17.93;52.34;100982.44;5056747;28;45522;-74
2023/05/03 08:46:26;;;;;;;;;7.00;5.00;;;;;17.87;52.69;100964.00;5059085;28;45516;-74
2023/05/03 08:48:53;;;;;;;;;6.25;5.00;;;;;17.91;52.17;100970.84;5058917;28;46697;-74
2023/05/03 08:51:21;;;;;;;;;6.25;6.25;;;;;18.01;52.73;100970.66;5058925;28;45454;-73
2023/05/03 08:53:48;;;;;;;;;5.50;4.75;;;;;18.02;52.84;100986.91;5057471;28;45384;-74
2023/05/03 08:56:29;;;;;;;;;7.50;5.75;;;;;18.05;52.62;100982.94;5059389;28;45449;-74
2023/05/03 08:58:55;;;;;;;;;7.75;4.75;;;;;18.00;52.85;100975.25;5058270;28;46147;-74
2023/05/03 09:01:23;;;;;;;;;5.60;5.60;;;;;18.06;52.64;100980.06;5057789;28;45537;-74
2023/05/03 09:03:50;;;;;;;;;5.00;3.80;;;;;18.03;52.52;100980.41;5058927;28;45494;-73
2023/05/03 09:06:26;;;;;;;;;5.25;3.75;;;;;18.04;52.44;100976.63;5058967;28;45407;-73
2023/05/03 09:08:52;;;;;;;;;5.00;4.00;;;;;17.98;52.42;100962.78;5046129;28;45648;-74
2023/05/03 09:11:26;;;;;;;;;3.75;3.50;;;;;18.00;52.41;100966.22;5056990;28;45518;-74
2023/05/03 09:13:53;;;;;;;;;6.00;5.00;;;;;18.00;52.46;100958.81;5057825;28;45318;-74
2023/05/03 09:16:28;;;;;;;;;5.00;5.00;;;;;18.03;52.44;100963.13;5057589;28;45453;-74
2023/05/03 09:19:05;;;;;;;;;8.50;5.00;;;;;18.00;52.11;100961.56;5051755;28;46449;-74
2023/05/03 09:21:31;;;;;;;;;5.00;4.00;;;;;17.93;52.21;100946.84;5056540;28;45398;-74
2023/05/03 09:23:57;;;;;;;;;6.00;6.00;;;;;17.99;52.47;100956.28;5058642;28;45421;-74
2023/05/03 09:26:31;;;;;;;;;6.50;3.50;;;;;18.02;52.40;100947.72;5058550;28;45412;-74
2023/05/03 09:29:01;;;;;;;;;4.00;4.00;;;;;17.82;52.18;100922.63;5058550;28;45433;-74
2023/05/03 09:31:29;;;;;;;;;4.60;4.20;;;;;17.96;52.00;100941.91;5046400;28;45289;-74
2023/05/03 09:33:55;;;;;;;;;6.75;5.25;;;;;17.96;52.27;100950.13;5055074;28;45401;-74
2023/05/03 09:36:22;;;;;;;;;5.25;5.00;;;;;17.86;52.37;100929.44;5057567;28;45479;-74
2023/05/03 09:38:50;;;;;;;;;5.25;5.00;;;;;18.02;52.60;100954.03;5058032;28;46794;-74
2023/05/03 09:41:25;;;;;;;;;6.80;5.60;;;;;18.03;52.41;100955.75;5053565;28;45441;-74
2023/05/03 09:43:54;;;;;;;;;5.60;5.00;;;;;17.98;52.22;100941.75;5050050;28;45342;-74
2023/05/03 09:46:19;;;;;;;;;6.50;5.75;;;;;17.87;52.52;100921.06;5058355;28;45646;-74
2023/05/03 09:48:45;;;;;;;;;5.00;5.00;;;;;17.95;52.06;100936.59;5058866;28;46651;-74
2023/05/03 09:51:12;;;;;;;;;6.00;6.00;;;;;17.96;52.45;100930.09;5057248;28;45564;-74
2023/05/03 09:53:39;;;;;;;;;3.50;3.50;;;;;18.05;52.46;100944.59;5071236;28;45732;-73
2023/05/03 09:56:12;;;;;;;;;4.25;4.25;;;;;18.04;52.57;100941.03;5058431;28;45410;-73
2023/05/03 09:58:38;;;;;;;;;5.50;5.50;;;;;18.00;52.65;100936.06;5059194;28;46314;-73
2023/05/03 10:01:04;;;;;;;;;8.40;4.60;;;;;17.92;52.79;100918.63;5057709;28;45789;-74
2023/05/03 10:03:49;;;;;;;;;4.00;4.00;;;;;18.00;52.67;100914.16;5060976;28;45351;-73
2023/05/03 10:06:35;;;;;;;;;5.00;5.00;;;;;18.09;52.61;100924.91;5064118;28;45374;-73
2023/05/03 10:09:36;;;;;;;;;5.00;5.00;;;;;18.14;52.47;100927.09;5053653;28;45764;-73
2023/05/03 10:12:06;;;;;;;;;4.20;4.20;;;;;18.16;52.55;100914.09;5014945;28;45548;-73
2023/05/03 10:14:31;;;;;;;;;6.00;4.50;;;;;18.14;52.41;100904.34;5056912;28;45732;-74
2023/05/03 10:17:01;;;;;;;;;4.50;4.50;;;;;18.23;52.65;100906.84;5058239;28;45699;-73
2023/05/03 10:19:49;;;;;;;;;6.00;5.00;;;;;18.25;52.75;100912.13;5057117;28;46852;-73
2023/05/03 10:22:15;;;;;;;;;6.00;4.00;;;;;18.20;52.43;100906.34;5054250;28;45391;-74
2023/05/03 10:24:59;;;;;;;;;4.50;4.50;;;;;18.21;52.71;100906.16;5055193;28;45679;-74
2023/05/03 10:27:34;;;;;;;;;4.50;4.50;;;;;18.15;52.27;100897.81;5059925;28;45398;-74
2023/05/03 10:30:00;;;;;;;;;3.75;3.75;;;;;18.17;52.44;100893.00;5049030;28;45419;-73
2023/05/03 10:32:31;;;;;;;;;6.00;4.75;;;;;18.20;52.36;100898.13;5056959;28;45409;-74
2023/05/03 10:35:08;;;;;;;;;5.25;4.25;;;;;18.20;52.18;100903.63;5058053;28;45422;-73
2023/05/03 10:37:35;;;;;;;;;5.50;4.75;;;;;18.16;52.20;100888.56;5056695;28;45502;-74
2023/05/03 10:40:12;;;;;;;;;5.75;4.25;;;;;18.11;51.98;100873.53;5057239;28;46168;-74
2023/05/03 10:42:42;;;;;;;;;4.00;4.00;;;;;18.18;52.32;100881.88;5056301;28;45410;-74
2023/05/03 10:45:18;;;;;;;;;5.25;3.75;;;;;17.95;52.82;100841.63;5052118;28;45396;-74
2023/05/03 10:47:43;;;;;;;;;4.00;3.00;;;;;18.21;52.18;100894.38;5057647;28;45372;-74
2023/05/03 10:50:15;;;;;;;;;5.00;4.50;;;;;18.21;52.60;100884.25;5057044;28;47383;-74
2023/05/03 10:52:40;;;;;;;;;3.40;3.40;;;;;18.22;52.57;100887.81;5054211;28;45785;-74
2023/05/03 10:55:14;;;;;;;;;3.75;3.25;;;;;18.22;52.36;100885.09;5057203;28;45571;-74
2023/05/03 10:57:42;;;;;;;;;7.25;6.00;;;;;18.02;52.79;100846.38;5057706;28;45441;-73
2023/05/03 11:00:21;;;;;;;;;4.25;4.00;;;;;18.11;52.77;100862.56;5056316;28;45470;-73
2023/05/03 11:03:24;;;;;;;;;5.40;4.20;;;;;18.14;52.48;100860.53;5056963;28;45454;-73
2023/05/03 11:05:50;;;;;;;;;4.75;4.75;;;;;18.04;52.93;100842.44;5045328;28;45418;-73
2023/05/03 11:08:19;;;;;;;;;4.00;3.75;;;;;18.22;52.71;100863.16;5056799;28;45713;-74
2023/05/03 11:10:48;;;;;;;;;5.25;5.25;;;;;18.18;52.60;100859.09;5057093;28;45485;-74
2023/05/03 11:13:15;;;;;;;;;5.60;5.00;;;;;18.24;52.46;100855.63;5054809;28;45382;-73
2023/05/03 11:15:41;;;;;;;;;6.00;4.25;;;;;18.24;52.79;100844.69;5063759;28;45396;-74
2023/05/03 11:18:10;;;;;;;;;5.00;4.50;;;;;18.14;52.90;100830.38;5060301;27;45372;-73
2023/05/03 11:20:37;;;;;;;;;5.00;4.00;;;;;18.25;53.18;100841.75;5063590;28;46323;-73
2023/05/03 11:23:04;;;;;;;;;3.60;3.60;;;;;17.97;53.16;100786.69;5058108;27;45741;-74
2023/05/03 11:25:32;;;;;;;;;5.00;5.00;;;;;18.19;52.86;100825.19;5062583;28;45478;-73
2023/05/03 11:28:00;;;;;;;;;4.50;4.00;;;;;18.15;52.89;100813.75;5059271;27;45862;-73